Photometre #714[NE_1.6] Minsk AOT

File : 20200924_714.hum

24/09/2020,05:00:58,TEMP=10.0,BA=5.64,STAT.A=4.5,ExtBa=14.22
24/09/2020,05:03:21,TEMP=10.5,BA=5.64,STAT.D=4.5,ExtBa=14.10
24/09/2020,05:05:24,TEMP=10.8,BA=5.64,STAT.A=4.5,ExtBa=13.92
24/09/2020,05:09:21,TEMP=10.8,BA=5.64,STAT.D=4.5,ExtBa=13.80
24/09/2020,05:11:17,TEMP=11.1,BA=5.60,STAT.A=4.5,ExtBa=13.78
24/09/2020,05:15:21,TEMP=11.1,BA=5.60,STAT.D=4.5,ExtBa=13.89
24/09/2020,05:17:18,TEMP=11.5,BA=5.60,STAT.A=4.5,ExtBa=13.85
24/09/2020,05:21:21,TEMP=11.4,BA=5.64,STAT.D=4.5,ExtBa=14.00
24/09/2020,05:24:19,TEMP=11.6,BA=5.64,STAT.A=4.5,ExtBa=13.97
24/09/2020,05:27:21,TEMP=11.8,BA=5.64,STAT.D=4.5,ExtBa=13.96
24/09/2020,05:30:21,TEMP=12.0,BA=5.64,STAT.D=4.5,ExtBa=13.97
24/09/2020,05:33:21,TEMP=12.1,BA=5.64,STAT.D=4.5,ExtBa=13.90
24/09/2020,05:35:26,TEMP=12.5,BA=5.64,STAT.A=4.5,ExtBa=13.65
24/09/2020,05:39:21,TEMP=12.4,BA=5.64,STAT.D=4.5,ExtBa=13.84
24/09/2020,05:42:21,TEMP=12.7,BA=5.60,STAT.D=4.5,ExtBa=13.86
24/09/2020,05:45:21,TEMP=12.9,BA=5.60,STAT.D=4.5,ExtBa=13.92
24/09/2020,05:47:22,TEMP=13.3,BA=5.60,STAT.B=4.5,ExtBa=13.84
24/09/2020,05:57:10,TEMP=13.3,BA=5.60,STAT.A=4.5,ExtBa=13.13
24/09/2020,05:59:05,TEMP=13.5,BA=5.60,STAT.A=4.5,ExtBa=13.30
24/09/2020,06:03:22,TEMP=13.4,BA=5.60,STAT.D=4.5,ExtBa=13.63
24/09/2020,06:05:24,TEMP=13.7,BA=5.60,STAT.A=4.5,ExtBa=13.63
24/09/2020,06:09:22,TEMP=13.6,BA=5.60,STAT.D=4.5,ExtBa=13.78
24/09/2020,06:12:22,TEMP=13.8,BA=5.60,STAT.D=4.5,ExtBa=13.87
24/09/2020,06:14:17,TEMP=14.1,BA=5.60,STAT.A=4.5,ExtBa=13.83
24/09/2020,06:18:21,TEMP=13.9,BA=5.60,STAT.D=4.5,ExtBa=13.93
24/09/2020,06:21:22,TEMP=14.1,BA=5.60,STAT.D=4.5,ExtBa=13.90
24/09/2020,06:23:16,TEMP=14.5,BA=5.60,STAT.C=4.5,ExtBa=13.85
24/09/2020,06:37:47,TEMP=14.8,BA=5.60,STAT.A=4.5,ExtBa=13.13
24/09/2020,06:42:22,TEMP=14.7,BA=5.64,STAT.D=5.0,ExtBa=13.58
24/09/2020,06:45:22,TEMP=14.9,BA=5.64,STAT.D=4.5,ExtBa=13.73
24/09/2020,06:48:22,TEMP=15.1,BA=5.64,STAT.D=4.5,ExtBa=13.83
24/09/2020,06:50:18,TEMP=15.4,BA=5.64,STAT.A=4.5,ExtBa=13.82
24/09/2020,06:54:22,TEMP=15.2,BA=5.64,STAT.D=5.0,ExtBa=13.95
24/09/2020,06:57:22,TEMP=15.3,BA=5.64,STAT.D=5.0,ExtBa=13.92
24/09/2020,07:00:22,TEMP=15.4,BA=5.64,STAT.D=5.0,ExtBa=13.92
24/09/2020,07:02:19,TEMP=15.7,BA=5.64,STAT.F,ExtBa=13.88
24/09/2020,07:16:58,TEMP=15.9,BA=5.60,STAT.D=5.0,ExtBa=13.15
24/09/2020,07:24:22,TEMP=16.2,BA=5.60,STAT.D=5.0,ExtBa=13.88
24/09/2020,07:27:22,TEMP=16.6,BA=5.60,STAT.D=5.0,ExtBa=13.90
24/09/2020,07:30:22,TEMP=16.8,BA=5.64,STAT.D=5.0,ExtBa=13.89
24/09/2020,07:32:16,TEMP=17.1,BA=5.64,STAT.D=5.0,ExtBa=13.86
24/09/2020,07:36:22,TEMP=16.9,BA=5.64,STAT.D=5.0,ExtBa=13.97
24/09/2020,07:39:22,TEMP=17.2,BA=5.64,STAT.D=5.0,ExtBa=13.99
24/09/2020,07:42:22,TEMP=17.5,BA=5.60,STAT.D=5.0,ExtBa=13.93
24/09/2020,07:45:22,TEMP=17.7,BA=5.60,STAT.D=5.0,ExtBa=13.97
24/09/2020,07:47:29,TEMP=18.1,BA=5.60,STAT.D=5.0,ExtBa=13.81
24/09/2020,07:51:22,TEMP=17.9,BA=5.64,STAT.D=5.0,ExtBa=13.82
24/09/2020,07:54:22,TEMP=18.0,BA=5.64,STAT.D=5.0,ExtBa=13.89
24/09/2020,07:57:22,TEMP=18.0,BA=5.64,STAT.D=5.0,ExtBa=13.93
24/09/2020,08:00:22,TEMP=18.1,BA=5.64,STAT.D=5.0,ExtBa=13.95
24/09/2020,08:02:17,TEMP=18.4,BA=5.64,STAT.F,ExtBa=13.87
24/09/2020,08:17:14,TEMP=18.8,BA=5.48,STAT.D=5.0,ExtBa=13.04
24/09/2020,08:21:22,TEMP=18.9,BA=5.64,STAT.D=5.0,ExtBa=13.55
24/09/2020,08:24:22,TEMP=19.1,BA=5.64,STAT.D=5.0,ExtBa=13.72
24/09/2020,08:27:22,TEMP=19.3,BA=5.64,STAT.D=5.0,ExtBa=13.83
24/09/2020,08:30:22,TEMP=19.6,BA=5.64,STAT.D=5.0,ExtBa=13.87
24/09/2020,08:32:16,TEMP=19.9,BA=5.64,STAT.D=5.0,ExtBa=13.85
24/09/2020,08:36:22,TEMP=19.8,BA=5.64,STAT.D=5.0,ExtBa=13.97
24/09/2020,08:39:22,TEMP=20.1,BA=5.64,STAT.D=5.0,ExtBa=13.97
24/09/2020,08:42:22,TEMP=20.2,BA=5.60,STAT.D=5.0,ExtBa=13.97
24/09/2020,08:45:22,TEMP=20.3,BA=5.60,STAT.D=5.0,ExtBa=13.98
24/09/2020,08:47:15,TEMP=20.6,BA=5.60,STAT.D=5.0,ExtBa=13.92
24/09/2020,08:51:22,TEMP=20.4,BA=5.64,STAT.D=5.0,ExtBa=14.01
24/09/2020,08:54:22,TEMP=20.8,BA=5.64,STAT.D=5.0,ExtBa=14.00
24/09/2020,08:57:22,TEMP=20.9,BA=5.64,STAT.D=5.0,ExtBa=14.00
24/09/2020,09:00:22,TEMP=21.0,BA=5.64,STAT.D=5.0,ExtBa=14.00
24/09/2020,09:02:17,TEMP=21.3,BA=5.64,STAT.F,ExtBa=13.90
24/09/2020,09:16:58,TEMP=21.4,BA=5.48,STAT.D=5.5,ExtBa=13.11
24/09/2020,09:21:22,TEMP=21.6,BA=5.60,STAT.D=5.5,ExtBa=13.67
24/09/2020,09:24:22,TEMP=21.7,BA=5.60,STAT.D=5.5,ExtBa=13.80
24/09/2020,09:27:22,TEMP=21.8,BA=5.60,STAT.D=5.5,ExtBa=13.89
24/09/2020,09:30:22,TEMP=21.9,BA=5.64,STAT.D=5.5,ExtBa=13.93
24/09/2020,09:32:15,TEMP=22.1,BA=5.64,STAT.D=5.5,ExtBa=13.88
24/09/2020,09:36:22,TEMP=21.9,BA=5.64,STAT.D=5.5,ExtBa=13.99
24/09/2020,09:39:22,TEMP=22.3,BA=5.64,STAT.D=5.5,ExtBa=13.98
24/09/2020,09:42:22,TEMP=22.4,BA=5.52,STAT.D=5.5,ExtBa=13.97
24/09/2020,09:45:22,TEMP=22.6,BA=5.52,STAT.D=5.5,ExtBa=13.98
24/09/2020,09:47:15,TEMP=22.8,BA=5.52,STAT.D=5.5,ExtBa=13.90
24/09/2020,09:51:22,TEMP=22.6,BA=5.60,STAT.D=5.5,ExtBa=13.99
24/09/2020,09:54:22,TEMP=22.9,BA=5.60,STAT.D=5.5,ExtBa=13.95
24/09/2020,09:57:22,TEMP=23.0,BA=5.60,STAT.D=5.5,ExtBa=13.97
24/09/2020,10:00:22,TEMP=23.0,BA=5.60,STAT.D=5.5,ExtBa=13.95
24/09/2020,10:02:17,TEMP=23.3,BA=5.60,STAT.F,ExtBa=13.89
24/09/2020,10:16:58,TEMP=23.1,BA=5.44,STAT.D=5.5,ExtBa=13.08
24/09/2020,10:21:22,TEMP=23.3,BA=5.60,STAT.D=5.5,ExtBa=13.66
24/09/2020,10:24:22,TEMP=23.5,BA=5.60,STAT.D=5.5,ExtBa=13.82
24/09/2020,10:27:22,TEMP=23.5,BA=5.60,STAT.D=5.5,ExtBa=13.86
24/09/2020,10:30:22,TEMP=23.5,BA=5.60,STAT.D=5.5,ExtBa=13.92
24/09/2020,10:32:15,TEMP=23.8,BA=5.60,STAT.D=5.5,ExtBa=13.86
24/09/2020,10:36:22,TEMP=23.7,BA=5.60,STAT.D=5.5,ExtBa=13.98
24/09/2020,10:39:22,TEMP=24.0,BA=5.60,STAT.D=5.5,ExtBa=13.97
24/09/2020,10:42:22,TEMP=24.2,BA=5.48,STAT.D=5.5,ExtBa=13.96
24/09/2020,10:45:22,TEMP=24.2,BA=5.48,STAT.D=5.5,ExtBa=13.95
24/09/2020,10:47:15,TEMP=24.4,BA=5.48,STAT.D=5.5,ExtBa=13.89
24/09/2020,10:51:22,TEMP=24.1,BA=5.60,STAT.D=5.5,ExtBa=13.99
24/09/2020,10:54:22,TEMP=24.2,BA=5.60,STAT.D=5.5,ExtBa=13.97
24/09/2020,10:57:22,TEMP=24.2,BA=5.60,STAT.D=5.5,ExtBa=13.96
24/09/2020,11:00:22,TEMP=24.2,BA=5.60,STAT.D=5.5,ExtBa=13.96
24/09/2020,11:02:21,TEMP=24.4,BA=5.60,STAT.F,ExtBa=13.87
24/09/2020,11:16:58,TEMP=24.2,BA=5.44,STAT.D=5.5,ExtBa=13.10
24/09/2020,11:21:22,TEMP=24.1,BA=5.60,STAT.D=5.5,ExtBa=13.68
24/09/2020,11:24:22,TEMP=24.4,BA=5.60,STAT.D=5.5,ExtBa=13.80
24/09/2020,11:27:22,TEMP=24.5,BA=5.60,STAT.D=5.5,ExtBa=13.86
24/09/2020,11:30:22,TEMP=24.4,BA=5.60,STAT.D=5.5,ExtBa=13.84
24/09/2020,11:32:15,TEMP=24.6,BA=5.60,STAT.D=5.5,ExtBa=13.82
24/09/2020,11:36:22,TEMP=24.3,BA=5.60,STAT.D=5.5,ExtBa=13.95
24/09/2020,11:39:22,TEMP=24.5,BA=5.60,STAT.D=5.5,ExtBa=13.94
24/09/2020,11:42:22,TEMP=24.6,BA=5.44,STAT.D=5.5,ExtBa=13.93
24/09/2020,11:45:22,TEMP=24.7,BA=5.44,STAT.D=5.5,ExtBa=13.94
24/09/2020,11:47:15,TEMP=24.9,BA=5.44,STAT.D=5.5,ExtBa=13.88
24/09/2020,11:51:22,TEMP=24.6,BA=5.60,STAT.D=5.5,ExtBa=13.97
24/09/2020,11:54:22,TEMP=24.7,BA=5.60,STAT.D=5.5,ExtBa=13.96
24/09/2020,11:57:22,TEMP=24.7,BA=5.60,STAT.D=5.5,ExtBa=13.92
24/09/2020,12:00:22,TEMP=24.8,BA=5.60,STAT.D=5.5,ExtBa=13.91
24/09/2020,12:02:18,TEMP=25.0,BA=5.60,STAT.F,ExtBa=13.84
24/09/2020,12:16:58,TEMP=24.2,BA=5.40,STAT.D=5.5,ExtBa=13.16
24/09/2020,12:21:22,TEMP=24.3,BA=5.60,STAT.D=5.5,ExtBa=13.71
24/09/2020,12:24:22,TEMP=24.7,BA=5.60,STAT.D=5.5,ExtBa=13.83
24/09/2020,12:27:22,TEMP=24.8,BA=5.60,STAT.D=5.5,ExtBa=13.88
24/09/2020,12:30:22,TEMP=24.9,BA=5.60,STAT.D=5.5,ExtBa=13.91
24/09/2020,12:32:16,TEMP=25.1,BA=5.60,STAT.D=5.5,ExtBa=13.84
24/09/2020,12:36:22,TEMP=24.7,BA=5.60,STAT.D=5.5,ExtBa=13.95
24/09/2020,12:39:22,TEMP=24.8,BA=5.60,STAT.D=5.5,ExtBa=13.91
24/09/2020,12:42:22,TEMP=24.8,BA=5.44,STAT.D=5.5,ExtBa=13.91
24/09/2020,12:45:22,TEMP=24.7,BA=5.44,STAT.D=5.5,ExtBa=13.90
24/09/2020,12:47:16,TEMP=24.8,BA=5.44,STAT.D=5.5,ExtBa=13.84
24/09/2020,12:51:22,TEMP=24.4,BA=5.60,STAT.D=5.5,ExtBa=13.94
24/09/2020,12:54:22,TEMP=24.4,BA=5.60,STAT.D=5.5,ExtBa=13.85
24/09/2020,12:57:22,TEMP=24.4,BA=5.60,STAT.D=5.5,ExtBa=13.88
24/09/2020,13:00:22,TEMP=24.3,BA=5.60,STAT.D=5.5,ExtBa=13.89
24/09/2020,13:02:17,TEMP=24.4,BA=5.60,STAT.F,ExtBa=13.81
24/09/2020,13:16:30,TEMP=24.2,BA=5.40,STAT.A=5.5,ExtBa=12.98
24/09/2020,13:21:22,TEMP=24.1,BA=5.60,STAT.D=5.5,ExtBa=13.67
24/09/2020,13:24:22,TEMP=24.4,BA=5.60,STAT.D=5.5,ExtBa=13.72
24/09/2020,13:27:22,TEMP=24.4,BA=5.60,STAT.D=5.5,ExtBa=13.80
24/09/2020,13:29:17,TEMP=24.5,BA=5.60,STAT.A=5.5,ExtBa=13.73
24/09/2020,13:33:22,TEMP=24.0,BA=5.40,STAT.D=5.5,ExtBa=13.92
24/09/2020,13:36:22,TEMP=23.9,BA=5.40,STAT.D=5.5,ExtBa=13.86
24/09/2020,13:39:22,TEMP=23.9,BA=5.40,STAT.D=5.5,ExtBa=13.91
24/09/2020,13:41:19,TEMP=24.1,BA=5.44,STAT.C=5.5,ExtBa=13.81
24/09/2020,13:55:34,TEMP=23.8,BA=5.40,STAT.A=5.5,ExtBa=12.96
24/09/2020,13:58:58,TEMP=23.7,BA=5.40,STAT.A=5.5,ExtBa=13.44
24/09/2020,14:03:22,TEMP=23.6,BA=5.40,STAT.D=5.5,ExtBa=13.76
24/09/2020,14:06:18,TEMP=23.8,BA=5.40,STAT.A=5.5,ExtBa=13.82
24/09/2020,14:09:21,TEMP=23.8,BA=5.40,STAT.D=5.5,ExtBa=13.86
24/09/2020,14:12:21,TEMP=23.9,BA=5.44,STAT.D=5.5,ExtBa=13.90
24/09/2020,14:14:16,TEMP=24.1,BA=5.44,STAT.A=5.5,ExtBa=13.80
24/09/2020,14:18:21,TEMP=23.7,BA=5.44,STAT.D=5.5,ExtBa=13.92
24/09/2020,14:20:19,TEMP=23.9,BA=5.44,STAT.B=5.5,ExtBa=13.77
24/09/2020,14:30:20,TEMP=23.0,BA=5.56,STAT.A=5.5,ExtBa=13.13
24/09/2020,14:33:21,TEMP=23.0,BA=5.56,STAT.D=5.5,ExtBa=13.49
24/09/2020,14:36:21,TEMP=23.1,BA=5.56,STAT.D=5.5,ExtBa=13.68
24/09/2020,14:39:21,TEMP=23.0,BA=5.56,STAT.D=5.5,ExtBa=13.74
24/09/2020,14:41:16,TEMP=23.2,BA=5.44,STAT.A=5.5,ExtBa=13.72
24/09/2020,14:45:21,TEMP=22.9,BA=5.44,STAT.D=5.5,ExtBa=13.90
24/09/2020,14:47:17,TEMP=23.2,BA=5.44,STAT.A=5.5,ExtBa=13.84
24/09/2020,14:51:21,TEMP=22.9,BA=5.60,STAT.D=5.5,ExtBa=13.94
24/09/2020,14:53:22,TEMP=23.1,BA=5.60,STAT.A=5.5,ExtBa=13.85
24/09/2020,14:57:21,TEMP=22.7,BA=5.60,STAT.D=5.5,ExtBa=13.94
24/09/2020,14:59:17,TEMP=22.8,BA=5.60,STAT.A=5.5,ExtBa=13.85
24/09/2020,15:03:00,TEMP=22.5,BA=5.44,STAT.A=5.5,ExtBa=13.93